Oscar Dyson — WTEP — position and weather

sailwx.info

Track history (hours):
 
Tides and Currents Weather Stations Pressure Air Temp Water Temp Dewpoint Dewpoint Depression Visibility Wind Speed Wind Dir Waves Ship Positions

Oceanographic research ship Oscar Dyson (USA)

Ship's website: http://www.moc.noaa.gov/od/

Detailed information on ship capabilities available from University of Delaware's Ocean Information Center and ARCUS's ALIAS (Arctic Logistics Information and Support) project.

Last reported at 2018-Jun-20 14:00 UTC. Time now 2018-Jun-20 15:23 UTC.
Position N 56°42' W 167°36'.

Type: Ship. MMSI: 369959000.

Wind from 210 at 8 knots

Barometer 1005.5 mb
Air temperature 7.0 ° C
Dewpoint 7.0 ° C
Water temperature 7.6 ° C

Date/timePositionNaut miles runAvg speedWind from/ knotsBaromVisibWave heightAir tempDewpointWater temp
2018-Jun-20 14:00N 56°42' W 167°36'0 0.0 210 / 81005.5 7.0 7.0 7.6
2018-Jun-20 13:00N 56°42' W 167°36'3 3.3 180 / 141005.7 6.7 6.7 7.7
2018-Jun-20 12:00N 56°42' W 167°30'0 0.0 190 / 171006.0 6.4 6.4 7.7
2018-Jun-20 11:00N 56°42' W 167°30'3 3.3 200 / 141006.4 6.6 6.6 7.8
2018-Jun-20 10:00N 56°42' W 167°36'0 0.0 220 / 131006.7 6.5 6.5 7.7
2018-Jun-20 09:00N 56°42' W 167°36'12 6.0 230 / 151006.9 6.7 6.7 7.7
2018-Jun-20 07:00N 56°30' W 167°36'3 3.3 250 / 111007.4 7.0 7.0 8.0
2018-Jun-20 06:00N 56°30' W 167°42'3 3.3 250 / 111007.4 7.0 7.0 8.0
2018-Jun-20 05:00N 56°30' W 167°36'4210.5 260 / 121007.4 7.1 7.1 8.1
2018-Jun-20 01:00N 55°48' W 167°36'6 6.0 290 / 121007.2 7.1 7.1 8.0
2018-Jun-20 00:00N 55°42' W 167°36'3 3.4 280 / 111007.0 7.2 7.2 7.8
2018-Jun-19 23:00N 55°42' W 167°30'30 7.5 290 / 111006.7 7.1 7.1 7.8
2018-Jun-19 19:00N 55°12' W 167°36'6 6.0 290 / 121006.3 7.0 7.0 7.4
2018-Jun-19 18:00N 55°06' W 167°36'3 3.4 300 / 131005.8 6.9 6.9 7.5
2018-Jun-19 17:00N 55°06' W 167°30'18 6.1 270 / 111005.3 6.8 6.8 7.6
2018-Jun-19 14:00N 54°48' W 167°24'1212.0 230 / 201005.7 5.9 5.9 7.4
2018-Jun-19 13:00N 54°42' W 167°06'9 9.2 230 / 191006.1 6.0 5.9 6.6
2018-Jun-19 12:00N 54°36' W 166°54'0 0.0 250 / 141006.3 6.2 4.4 6.7
2018-Jun-19 11:00N 54°36' W 166°54'0 0.0 250 / 151006.4 6.3 4.1 7.0
2018-Jun-19 10:00N 54°36' W 166°54'0 0.0 270 / 131006.4 6.1 4.4 7.0
2018-Jun-19 08:00N 54°36' W 166°54'6 6.0 250 / 151006.0 5.7 5.7 7.1
2018-Jun-19 07:00N 54°42' W 166°54'1212.0 260 / 171005.5 5.6 5.6 6.8
2018-Jun-19 06:00N 54°54' W 166°54'1212.0 260 / 171004.7 6.1 6.1 7.3
2018-Jun-19 05:00N 55°06' W 166°54'1212.0 280 / 171004.1 6.4 5.9 7.6
2018-Jun-19 04:00N 55°18' W 166°54'1212.0 280 / 171003.5 6.1 6.1 7.6
2018-Jun-19 03:00N 55°30' W 166°54'1818.3 290 / 181003.1 6.2 6.2 7.8
2018-Jun-19 02:00N 55°48' W 167°00'1212.0 300 / 171002.2 6.8 6.8
2018-Jun-19 01:00N 56°00' W 167°00'1212.0 300 / 181001.6 6.8 6.8
2018-Jun-19 00:00N 56°12' W 167°00'6 2.0 300 / 191001.0 6.7 6.7
2018-Jun-18 21:00N 56°18' W 167°00'1212.0 310 / 20999.9 6.4 6.4
2018-Jun-18 20:00N 56°30' W 167°00'1212.0 310 / 18999.3 6.7 6.7
2018-Jun-18 19:00N 56°42' W 167°00'1212.0 310 / 15998.9 6.8 6.8
2018-Jun-18 18:00N 56°54' W 167°00'1212.4 320 / 12998.6 6.9 6.9
2018-Jun-18 17:00N 57°06' W 167°06'1212.0 320 / 10998.4 7.0 7.0
2018-Jun-18 16:00N 57°18' W 167°06'1212.0 330 / 12998.2 7.1 7.1
2018-Jun-18 15:00N 57°30' W 167°06'12 4.0 330 / 12998.1 7.0 7.0
2018-Jun-18 12:00N 57°42' W 167°06'0 0.0 340 / 12998.2 6.7 6.7
2018-Jun-18 11:00N 57°42' W 167°06'6 6.4 350 / 12998.5 7.0 7.0
2018-Jun-18 10:00N 57°42' W 166°54'1312.8 360 / 11998.7 7.0 7.0
2018-Jun-18 09:00N 57°42' W 166°30'6 6.0 998.5 7.3 7.3
2018-Jun-18 08:00N 57°36' W 166°30'0 0.0 998.6 7.2 7.2
2018-Jun-18 07:00N 57°36' W 166°30'36 9.0 010 / 9998.7 7.2 7.2
2018-Jun-18 03:00N 57°00' W 166°24'1212.0 350 / 10998.6 6.9 6.9
2018-Jun-18 02:00N 56°48' W 166°24'18 6.0 360 / 12998.6 6.8 6.8
2018-Jun-17 23:00N 56°30' W 166°24'6 6.0 360 / 12998.4 7.4 7.4
2018-Jun-17 22:00N 56°36' W 166°24'24 8.0 020 / 13998.2 7.4 7.4
2018-Jun-17 19:00N 56°12' W 166°24'6 6.0 360 / 9997.4 6.5 6.5
2018-Jun-17 18:00N 56°06' W 166°24'0 0.0 350 / 8996.9 6.5 6.5
2018-Jun-17 17:00N 56°06' W 166°24'24 8.0 350 / 8996.5 6.8 6.8
2018-Jun-17 14:00N 55°42' W 166°24'0 0.0 340 / 12995.7 6.9 6.9
2018-Jun-17 13:00N 55°42' W 166°24'0 0.0 350 / 12995.5 7.0 7.0
2018-Jun-17 09:00N 55°42' W 166°24'0 0.0 030 / 14994.1 9.0 9.0
2018-Jun-17 08:00N 55°42' W 166°24'12 6.2 020 / 17993.5 7.7 7.7
2018-Jun-17 06:00N 55°30' W 166°18'3 3.4 010 / 12992.4 7.8 7.8
2018-Jun-17 05:00N 55°30' W 166°24'78 9.8 020 / 12992.1 8.1 8.1
2018-Jun-16 21:00N 54°12' W 166°12'4 3.5 040 / 15987.2 6.7 6.7
2018-Jun-16 20:00N 54°12' W 166°18'0 0.0 060 / 12986.7 6.6 6.6
2018-Jun-16 19:00N 54°12' W 166°18'4 3.5 060 / 15986.3 6.9 6.9
2018-Jun-16 18:00N 54°12' W 166°12'4 3.5 050 / 12985.5 7.3 7.3
2018-Jun-16 17:00N 54°12' W 166°18'0 0.0 060 / 13985.1 7.0 7.0
2018-Jun-16 16:00N 54°12' W 166°18'0 0.0 070 / 10985.0 6.9 6.9
2018-Jun-16 14:00N 54°12' W 166°18'1212.1 080 / 10984.5 7.4 7.4
2018-Jun-16 13:00N 54°18' W 166°00'0 0.0 090 / 19984.6 6.8 6.8
2018-Jun-16 12:00N 54°18' W 166°00'0 0.0 100 / 16984.6 6.9 6.9
2018-Jun-16 11:00N 54°18' W 166°00'4 1.8 100 / 17984.8 7.0 7.0
2018-Jun-16 09:00N 54°18' W 165°54'14 6.9 090 / 16985.2 6.8 6.8
2018-Jun-16 07:00N 54°30' W 165°42'1212.0 090 / 23985.6 7.2 7.2
2018-Jun-16 06:00N 54°42' W 165°42'6 6.0 090 / 20986.0 7.7 7.7
2018-Jun-16 05:00N 54°48' W 165°42'0 0.0 100 / 24986.1 8.3 8.3
2018-Jun-16 04:00N 54°48' W 165°42'1212.0 090 / 21986.6 8.0 8.0
2018-Jun-16 03:00N 55°00' W 165°42'0 0.0 060 / 16987.4 8.6 8.6
2018-Jun-16 02:00N 55°00' W 165°42'12 6.0 080 / 17988.2 8.8 8.8
2018-Jun-16 00:00N 55°12' W 165°42'1212.5 070 / 17989.4 8.1 8.1
2018-Jun-15 23:00N 55°24' W 165°48'1212.0 090 / 24989.7 8.2 8.2
2018-Jun-15 22:00N 55°36' W 165°48'1212.0 100 / 20990.6 8.3 8.3
2018-Jun-15 21:00N 55°48' W 165°48'1212.0 110 / 17991.6 8.3 8.3
2018-Jun-15 20:00N 56°00' W 165°48'1212.0 070 / 18991.9 8.6 8.6
2018-Jun-15 19:00N 56°12' W 165°48'1212.0 070 / 21992.3 8.5 8.5
2018-Jun-15 18:00N 56°24' W 165°48'1212.0 060 / 22993.1 7.9 7.9
2018-Jun-15 17:00N 56°36' W 165°48'1212.0 060 / 26994.1 7.6 7.6
2018-Jun-15 16:00N 56°48' W 165°48'1212.0 060 / 28995.2 7.6 7.6
2018-Jun-15 15:00N 57°00' W 165°48'1212.0 060 / 28996.6 8.1 8.1
2018-Jun-15 14:00N 57°12' W 165°48'3 3.3 060 / 24998.5 8.4 8.4
2018-Jun-15 13:00N 57°12' W 165°54'3 3.3 070 / 23999.3 9.2 8.2
2018-Jun-15 12:00N 57°12' W 165°48'0 0.0 060 / 231000.4 9.1 9.0
2018-Jun-15 11:00N 57°12' W 165°48'0 0.0 050 / 221001.4 9.2 8.4
2018-Jun-15 10:00N 57°12' W 165°48'0 0.0 050 / 201002.7 9.0 8.9
2018-Jun-15 09:00N 57°12' W 165°48'0 0.0 060 / 201004.2 9.1 7.6
2018-Jun-15 08:00N 57°12' W 165°48'7 6.8 040 / 211005.0 9.2 7.0
2018-Jun-15 07:00N 57°18' W 165°42'10 9.7 050 / 191006.3 9.0 7.6
2018-Jun-15 06:00N 57°18' W 165°24'4310.6 050 / 201007.2 9.3 8.4
2018-Jun-15 02:00N 56°36' W 165°12'0 0.0 060 / 131009.7 7.2 7.2
2018-Jun-15 01:00N 56°36' W 165°12'6 6.0 050 / 141010.6 7.4 7.4
2018-Jun-15 00:00N 56°42' W 165°12'0 0.0 040 / 121011.5 7.3 7.3
2018-Jun-14 23:00N 56°42' W 165°12'1818.0 060 / 111012.1 6.3 6.3
2018-Jun-14 22:00N 56°24' W 165°12'0 0.0 060 / 131012.4 6.4 6.4
2018-Jun-14 21:00N 56°24' W 165°12'72 8.0 090 / 111013.2 6.3 6.3
2018-Jun-14 12:00N 55°12' W 165°12'0 0.0 060 / 81014.8 5.9 5.9
2018-Jun-14 11:00N 55°12' W 165°12'0 0.0 070 / 81015.4 5.8 5.8
2018-Jun-14 10:00N 55°12' W 165°12'3 3.4 080 / 61015.7 5.8 5.8
2018-Jun-14 09:00N 55°12' W 165°06'0 0.0 080 / 71016.2 6.0 6.0
2018-Jun-14 08:00N 55°12' W 165°06'6 6.0 110 / 51016.6 6.0 6.0
2018-Jun-14 07:00N 55°18' W 165°06'18 9.0 100 / 31016.0 6.0 6.0
2018-Jun-14 05:00N 55°00' W 165°06'0 0.0 020 / 11015.8 7.0 7.0
2018-Jun-14 04:00N 55°00' W 165°06'0 0.0 340 / 11016.1 7.8 7.8
2018-Jun-14 03:00N 55°00' W 165°06'4210.5 230 / 51016.6 6.8 6.8
2018-Jun-13 23:00N 54°18' W 165°06'1212.0 140 / 111017.2 6.0 6.0
2018-Jun-13 22:00N 54°30' W 165°06'2613.1 150 / 151017.1 6.4 6.4
2018-Jun-13 20:00N 54°54' W 164°48'9 9.1 360 / 31017.4 6.3 6.3
2018-Jun-13 19:00N 55°00' W 164°36'1212.0 060 / 11017.4 4.9 4.9
2018-Jun-13 18:00N 55°12' W 164°36'6 6.0 260 / 71017.0 4.3 4.3
2018-Jun-13 17:00N 55°18' W 164°36'0 0.0 230 / 71016.9 4.6 4.6
2018-Jun-13 15:00N 55°18' W 164°36'7 6.9 240 / 81016.7 4.2 4.2
2018-Jun-13 14:00N 55°24' W 164°30'0 0.0 200 / 71016.9 4.8 4.8
2018-Jun-13 13:00N 55°24' W 164°30'0 0.0 180 / 41017.0 4.9 4.9
2018-Jun-13 12:00N 55°24' W 164°30'0 0.0 190 / 61016.8 5.1 5.1
2018-Jun-13 11:00N 55°24' W 164°30'3 3.4 160 / 61016.9 5.5 5.5
2018-Jun-13 10:00N 55°24' W 164°36'0 0.0 200 / 31017.0 6.0 6.0
2018-Jun-13 09:00N 55°24' W 164°36'0 0.0 220 / 51016.7 6.0 6.0
2018-Jun-13 08:00N 55°24' W 164°36'6 6.0 220 / 61016.5 6.6 6.6
2018-Jun-13 07:00N 55°30' W 164°36'1818.0 180 / 51015.8 8.4 8.4
2018-Jun-13 06:00N 55°48' W 164°36'1212.0 180 / 11015.5 9.1 9.1
2018-Jun-13 05:00N 56°00' W 164°36'0 0.0 070 / 51015.3 9.8 9.8
2018-Jun-13 03:00N 56°00' W 164°36'1212.0 060 / 81015.2 9.0 9.0
2018-Jun-13 02:00N 56°12' W 164°36'6 6.0 060 / 91015.3 8.8 8.8
2018-Jun-13 01:00N 56°18' W 164°36'6 6.0 070 / 61015.2 9.0 9.0
2018-Jun-13 00:00N 56°12' W 164°36'6 6.0 060 / 51015.1 8.4 8.4
2018-Jun-12 23:00N 56°18' W 164°36'1212.0 050 / 111015.1 8.2 8.2
2018-Jun-12 22:00N 56°30' W 164°36'1212.0 030 / 101015.0 8.0 8.0
2018-Jun-12 21:00N 56°42' W 164°36'1818.0 020 / 101014.7 7.7 7.7
2018-Jun-12 20:00N 57°00' W 164°36'1212.0 020 / 81014.4 7.6 7.6
2018-Jun-12 19:00N 57°12' W 164°36'1313.0 020 / 81014.0 7.2 7.2
2018-Jun-12 18:00N 57°12' W 164°12'37 7.3 010 / 81013.6 7.0 7.0
2018-Jun-12 13:00N 56°36' W 164°00'0 0.0 330 / 121012.5 7.8 7.8
2018-Jun-12 12:00N 56°36' W 164°00'0 0.0 310 / 151012.8 7.7 7.7
2018-Jun-12 11:00N 56°36' W 164°00'0 0.0 310 / 121013.0 7.8 7.8
2018-Jun-12 10:00N 56°36' W 164°00'6 3.0 310 / 131012.9 7.7 7.7
2018-Jun-12 08:00N 56°30' W 164°00'3 3.3 310 / 131012.9 7.9 7.9
2018-Jun-12 07:00N 56°30' W 163°54'36 7.2 300 / 111012.8 7.8 7.8
2018-Jun-12 02:00N 55°54' W 164°00'36 9.0 350 / 91013.2 6.6 6.6
2018-Jun-11 22:00N 55°18' W 164°00'0 0.0 330 / 31013.8 6.1 6.1
2018-Jun-11 21:00N 55°18' W 164°00'0 0.0 310 / 51013.6 6.4 6.4
2018-Jun-11 20:00N 55°18' W 164°00'14 6.9 320 / 51013.8 5.5 5.5
2018-Jun-11 18:00N 55°06' W 163°48'1515.0 210 / 31013.7 5.3 5.3
2018-Jun-11 17:00N 55°12' W 163°24'1212.0 340 / 61013.6 5.0 5.0
2018-Jun-11 16:00N 55°24' W 163°24'1212.0 010 / 71013.4 5.2 5.2
2018-Jun-11 15:00N 55°36' W 163°24'1212.0 350 / 81013.2 5.0 5.0
2018-Jun-11 14:00N 55°48' W 163°24'0 0.0 330 / 101013.1 5.4 5.4
2018-Jun-11 13:00N 55°48' W 163°24'0 0.0 360 / 101013.2 5.4 5.4
2018-Jun-11 12:00N 55°48' W 163°24'0 0.0 360 / 81013.6 5.2 5.2
2018-Jun-11 10:00N 55°48' W 163°24'0 0.0 020 / 121013.6 5.5 5.5
2018-Jun-11 09:00N 55°48' W 163°24'0 0.0 020 / 91013.8 5.7 5.7
2018-Jun-11 08:00N 55°48' W 163°24'0 0.0 360 / 131013.8 5.9 5.9
2018-Jun-11 07:00N 55°48' W 163°24'0 0.0 010 / 131013.7 5.4 5.4
2018-Jun-11 06:00N 55°48' W 163°24'1212.0 1013.9 5.8 5.8
2018-Jun-11 05:00N 56°00' W 163°24'1212.0 010 / 141014.1 6.6 6.6
2018-Jun-11 04:00N 56°12' W 163°24'1818.0 010 / 161014.3 6.7 6.7
2018-Jun-11 03:00N 56°30' W 163°24'1212.0 360 / 141014.5 7.0 7.0
2018-Jun-11 02:00N 56°42' W 163°24'1212.0 1014.7 7.2 7.2
2018-Jun-11 01:00N 56°54' W 163°24'1212.0 010 / 151015.2 7.6 7.6
2018-Jun-11 00:00N 57°06' W 163°24'1111.5 010 / 161015.4 7.0 7.0
2018-Jun-10 23:00N 57°12' W 163°06'26 8.6 1015.2 5.9 5.9
2018-Jun-10 20:00N 56°48' W 162°48'0 0.0 310 / 81015.5 3.9 3.9
2018-Jun-10 19:00N 56°48' W 162°48'36 7.2 320 / 71015.6 3.4 3.4
2018-Jun-10 14:00N 56°12' W 162°48'   030 / 71015.3 4.5 4.5
Track history (hours):
 
Tides and Currents Weather Stations Pressure Air Temp Water Temp Dewpoint Dewpoint Depression Visibility Wind Speed Wind Dir Waves Ship Positions

Oceanographic research ship Oscar Dyson (USA)

Ship's website: http://www.moc.noaa.gov/od/

Detailed information on ship capabilities available from University of Delaware's Ocean Information Center and ARCUS's ALIAS (Arctic Logistics Information and Support) project.

Last reported at 2018-Jun-20 14:00 UTC. Time now 2018-Jun-20 15:23 UTC.
Position N 56°42' W 167°36'.

Type: Ship. MMSI: 369959000.

Wind from 210 at 8 knots

Barometer 1005.5 mb
Air temperature 7.0 ° C
Dewpoint 7.0 ° C
Water temperature 7.6 ° C

Date/timePositionNaut miles runAvg speedWind from/ knotsBaromVisibWave heightAir tempDewpointWater temp
2018-Jun-20 14:00N 56°42' W 167°36'0 0.0 210 / 81005.5 7.0 7.0 7.6
2018-Jun-20 13:00N 56°42' W 167°36'3 3.3 180 / 141005.7 6.7 6.7 7.7
2018-Jun-20 12:00N 56°42' W 167°30'0 0.0 190 / 171006.0 6.4 6.4 7.7
2018-Jun-20 11:00N 56°42' W 167°30'3 3.3 200 / 141006.4 6.6 6.6 7.8
2018-Jun-20 10:00N 56°42' W 167°36'0 0.0 220 / 131006.7 6.5 6.5 7.7
2018-Jun-20 09:00N 56°42' W 167°36'12 6.0 230 / 151006.9 6.7 6.7 7.7
2018-Jun-20 07:00N 56°30' W 167°36'3 3.3 250 / 111007.4 7.0 7.0 8.0
2018-Jun-20 06:00N 56°30' W 167°42'3 3.3 250 / 111007.4 7.0 7.0 8.0
2018-Jun-20 05:00N 56°30' W 167°36'4210.5 260 / 121007.4 7.1 7.1 8.1
2018-Jun-20 01:00N 55°48' W 167°36'6 6.0 290 / 121007.2 7.1 7.1 8.0
2018-Jun-20 00:00N 55°42' W 167°36'3 3.4 280 / 111007.0 7.2 7.2 7.8
2018-Jun-19 23:00N 55°42' W 167°30'30 7.5 290 / 111006.7 7.1 7.1 7.8
2018-Jun-19 19:00N 55°12' W 167°36'6 6.0 290 / 121006.3 7.0 7.0 7.4
2018-Jun-19 18:00N 55°06' W 167°36'3 3.4 300 / 131005.8 6.9 6.9 7.5
2018-Jun-19 17:00N 55°06' W 167°30'18 6.1 270 / 111005.3 6.8 6.8 7.6
2018-Jun-19 14:00N 54°48' W 167°24'1212.0 230 / 201005.7 5.9 5.9 7.4
2018-Jun-19 13:00N 54°42' W 167°06'9 9.2 230 / 191006.1 6.0 5.9 6.6
2018-Jun-19 12:00N 54°36' W 166°54'0 0.0 250 / 141006.3 6.2 4.4 6.7
2018-Jun-19 11:00N 54°36' W 166°54'0 0.0 250 / 151006.4 6.3 4.1 7.0
2018-Jun-19 10:00N 54°36' W 166°54'0 0.0 270 / 131006.4 6.1 4.4 7.0
2018-Jun-19 08:00N 54°36' W 166°54'6 6.0 250 / 151006.0 5.7 5.7 7.1
2018-Jun-19 07:00N 54°42' W 166°54'1212.0 260 / 171005.5 5.6 5.6 6.8
2018-Jun-19 06:00N 54°54' W 166°54'1212.0 260 / 171004.7 6.1 6.1 7.3
2018-Jun-19 05:00N 55°06' W 166°54'1212.0 280 / 171004.1 6.4 5.9 7.6
2018-Jun-19 04:00N 55°18' W 166°54'1212.0 280 / 171003.5 6.1 6.1 7.6
2018-Jun-19 03:00N 55°30' W 166°54'1818.3 290 / 181003.1 6.2 6.2 7.8
2018-Jun-19 02:00N 55°48' W 167°00'1212.0 300 / 171002.2 6.8 6.8
2018-Jun-19 01:00N 56°00' W 167°00'1212.0 300 / 181001.6 6.8 6.8
2018-Jun-19 00:00N 56°12' W 167°00'6 2.0 300 / 191001.0 6.7 6.7
2018-Jun-18 21:00N 56°18' W 167°00'1212.0 310 / 20999.9 6.4 6.4
2018-Jun-18 20:00N 56°30' W 167°00'1212.0 310 / 18999.3 6.7 6.7
2018-Jun-18 19:00N 56°42' W 167°00'1212.0 310 / 15998.9 6.8 6.8
2018-Jun-18 18:00N 56°54' W 167°00'1212.4 320 / 12998.6 6.9 6.9
2018-Jun-18 17:00N 57°06' W 167°06'1212.0 320 / 10998.4 7.0 7.0
2018-Jun-18 16:00N 57°18' W 167°06'1212.0 330 / 12998.2 7.1 7.1
2018-Jun-18 15:00N 57°30' W 167°06'12 4.0 330 / 12998.1 7.0 7.0
2018-Jun-18 12:00N 57°42' W 167°06'0 0.0 340 / 12998.2 6.7 6.7
2018-Jun-18 11:00N 57°42' W 167°06'6 6.4 350 / 12998.5 7.0 7.0
2018-Jun-18 10:00N 57°42' W 166°54'1312.8 360 / 11998.7 7.0 7.0
2018-Jun-18 09:00N 57°42' W 166°30'6 6.0 998.5 7.3 7.3
2018-Jun-18 08:00N 57°36' W 166°30'0 0.0 998.6 7.2 7.2
2018-Jun-18 07:00N 57°36' W 166°30'36 9.0 010 / 9998.7 7.2 7.2
2018-Jun-18 03:00N 57°00' W 166°24'1212.0 350 / 10998.6 6.9 6.9
2018-Jun-18 02:00N 56°48' W 166°24'18 6.0 360 / 12998.6 6.8 6.8
2018-Jun-17 23:00N 56°30' W 166°24'6 6.0 360 / 12998.4 7.4 7.4
2018-Jun-17 22:00N 56°36' W 166°24'24 8.0 020 / 13998.2 7.4 7.4
2018-Jun-17 19:00N 56°12' W 166°24'6 6.0 360 / 9997.4 6.5 6.5
2018-Jun-17 18:00N 56°06' W 166°24'0 0.0 350 / 8996.9 6.5 6.5
2018-Jun-17 17:00N 56°06' W 166°24'24 8.0 350 / 8996.5 6.8 6.8
2018-Jun-17 14:00N 55°42' W 166°24'0 0.0 340 / 12995.7 6.9 6.9
2018-Jun-17 13:00N 55°42' W 166°24'0 0.0 350 / 12995.5 7.0 7.0
2018-Jun-17 09:00N 55°42' W 166°24'0 0.0 030 / 14994.1 9.0 9.0
2018-Jun-17 08:00N 55°42' W 166°24'12 6.2 020 / 17993.5 7.7 7.7
2018-Jun-17 06:00N 55°30' W 166°18'3 3.4 010 / 12992.4 7.8 7.8
2018-Jun-17 05:00N 55°30' W 166°24'78 9.8 020 / 12992.1 8.1 8.1
2018-Jun-16 21:00N 54°12' W 166°12'4 3.5 040 / 15987.2 6.7 6.7
2018-Jun-16 20:00N 54°12' W 166°18'0 0.0 060 / 12986.7 6.6 6.6
2018-Jun-16 19:00N 54°12' W 166°18'4 3.5 060 / 15986.3 6.9 6.9
2018-Jun-16 18:00N 54°12' W 166°12'4 3.5 050 / 12985.5 7.3 7.3
2018-Jun-16 17:00N 54°12' W 166°18'0 0.0 060 / 13985.1 7.0 7.0
2018-Jun-16 16:00N 54°12' W 166°18'0 0.0 070 / 10985.0 6.9 6.9
2018-Jun-16 14:00N 54°12' W 166°18'1212.1 080 / 10984.5 7.4 7.4
2018-Jun-16 13:00N 54°18' W 166°00'0 0.0 090 / 19984.6 6.8 6.8
2018-Jun-16 12:00N 54°18' W 166°00'0 0.0 100 / 16984.6 6.9 6.9
2018-Jun-16 11:00N 54°18' W 166°00'4 1.8 100 / 17984.8 7.0 7.0
2018-Jun-16 09:00N 54°18' W 165°54'14 6.9 090 / 16985.2 6.8 6.8
2018-Jun-16 07:00N 54°30' W 165°42'1212.0 090 / 23985.6 7.2 7.2
2018-Jun-16 06:00N 54°42' W 165°42'6 6.0 090 / 20986.0 7.7 7.7
2018-Jun-16 05:00N 54°48' W 165°42'0 0.0 100 / 24986.1 8.3 8.3
2018-Jun-16 04:00N 54°48' W 165°42'1212.0 090 / 21986.6 8.0 8.0
2018-Jun-16 03:00N 55°00' W 165°42'0 0.0 060 / 16987.4 8.6 8.6
2018-Jun-16 02:00N 55°00' W 165°42'12 6.0 080 / 17988.2 8.8 8.8
2018-Jun-16 00:00N 55°12' W 165°42'1212.5 070 / 17989.4 8.1 8.1
2018-Jun-15 23:00N 55°24' W 165°48'1212.0 090 / 24989.7 8.2 8.2
2018-Jun-15 22:00N 55°36' W 165°48'1212.0 100 / 20990.6 8.3 8.3
2018-Jun-15 21:00N 55°48' W 165°48'1212.0 110 / 17991.6 8.3 8.3
2018-Jun-15 20:00N 56°00' W 165°48'1212.0 070 / 18991.9 8.6 8.6
2018-Jun-15 19:00N 56°12' W 165°48'1212.0 070 / 21992.3 8.5 8.5
2018-Jun-15 18:00N 56°24' W 165°48'1212.0 060 / 22993.1 7.9 7.9
2018-Jun-15 17:00N 56°36' W 165°48'1212.0 060 / 26994.1 7.6 7.6
2018-Jun-15 16:00N 56°48' W 165°48'1212.0 060 / 28995.2 7.6 7.6
2018-Jun-15 15:00N 57°00' W 165°48'1212.0 060 / 28996.6 8.1 8.1
2018-Jun-15 14:00N 57°12' W 165°48'3 3.3 060 / 24998.5 8.4 8.4
2018-Jun-15 13:00N 57°12' W 165°54'3 3.3 070 / 23999.3 9.2 8.2
2018-Jun-15 12:00N 57°12' W 165°48'0 0.0 060 / 231000.4 9.1 9.0
2018-Jun-15 11:00N 57°12' W 165°48'0 0.0 050 / 221001.4 9.2 8.4
2018-Jun-15 10:00N 57°12' W 165°48'0 0.0 050 / 201002.7 9.0 8.9
2018-Jun-15 09:00N 57°12' W 165°48'0 0.0 060 / 201004.2 9.1 7.6
2018-Jun-15 08:00N 57°12' W 165°48'7 6.8 040 / 211005.0 9.2 7.0
2018-Jun-15 07:00N 57°18' W 165°42'10 9.7 050 / 191006.3 9.0 7.6
2018-Jun-15 06:00N 57°18' W 165°24'4310.6 050 / 201007.2 9.3 8.4
2018-Jun-15 02:00N 56°36' W 165°12'0 0.0 060 / 131009.7 7.2 7.2
2018-Jun-15 01:00N 56°36' W 165°12'6 6.0 050 / 141010.6 7.4 7.4
2018-Jun-15 00:00N 56°42' W 165°12'0 0.0 040 / 121011.5 7.3 7.3
2018-Jun-14 23:00N 56°42' W 165°12'1818.0 060 / 111012.1 6.3 6.3
2018-Jun-14 22:00N 56°24' W 165°12'0 0.0 060 / 131012.4 6.4 6.4
2018-Jun-14 21:00N 56°24' W 165°12'72 8.0 090 / 111013.2 6.3 6.3
2018-Jun-14 12:00N 55°12' W 165°12'0 0.0 060 / 81014.8 5.9 5.9
2018-Jun-14 11:00N 55°12' W 165°12'0 0.0 070 / 81015.4 5.8 5.8
2018-Jun-14 10:00N 55°12' W 165°12'3 3.4 080 / 61015.7 5.8 5.8
2018-Jun-14 09:00N 55°12' W 165°06'0 0.0 080 / 71016.2 6.0 6.0
2018-Jun-14 08:00N 55°12' W 165°06'6 6.0 110 / 51016.6 6.0 6.0
2018-Jun-14 07:00N 55°18' W 165°06'18 9.0 100 / 31016.0 6.0 6.0
2018-Jun-14 05:00N 55°00' W 165°06'0 0.0 020 / 11015.8 7.0 7.0
2018-Jun-14 04:00N 55°00' W 165°06'0 0.0 340 / 11016.1 7.8 7.8
2018-Jun-14 03:00N 55°00' W 165°06'4210.5 230 / 51016.6 6.8 6.8
2018-Jun-13 23:00N 54°18' W 165°06'1212.0 140 / 111017.2 6.0 6.0
2018-Jun-13 22:00N 54°30' W 165°06'2613.1 150 / 151017.1 6.4 6.4
2018-Jun-13 20:00N 54°54' W 164°48'9 9.1 360 / 31017.4 6.3 6.3
2018-Jun-13 19:00N 55°00' W 164°36'1212.0 060 / 11017.4 4.9 4.9
2018-Jun-13 18:00N 55°12' W 164°36'6 6.0 260 / 71017.0 4.3 4.3
2018-Jun-13 17:00N 55°18' W 164°36'0 0.0 230 / 71016.9 4.6 4.6
2018-Jun-13 15:00N 55°18' W 164°36'7 6.9 240 / 81016.7 4.2 4.2
2018-Jun-13 14:00N 55°24' W 164°30'0 0.0 200 / 71016.9 4.8 4.8
2018-Jun-13 13:00N 55°24' W 164°30'0 0.0 180 / 41017.0 4.9 4.9
2018-Jun-13 12:00N 55°24' W 164°30'0 0.0 190 / 61016.8 5.1 5.1
2018-Jun-13 11:00N 55°24' W 164°30'3 3.4 160 / 61016.9 5.5 5.5
2018-Jun-13 10:00N 55°24' W 164°36'0 0.0 200 / 31017.0 6.0 6.0
2018-Jun-13 09:00N 55°24' W 164°36'0 0.0 220 / 51016.7 6.0 6.0
2018-Jun-13 08:00N 55°24' W 164°36'6 6.0 220 / 61016.5 6.6 6.6
2018-Jun-13 07:00N 55°30' W 164°36'1818.0 180 / 51015.8 8.4 8.4
2018-Jun-13 06:00N 55°48' W 164°36'1212.0 180 / 11015.5 9.1 9.1
2018-Jun-13 05:00N 56°00' W 164°36'0 0.0 070 / 51015.3 9.8 9.8
2018-Jun-13 03:00N 56°00' W 164°36'1212.0 060 / 81015.2 9.0 9.0
2018-Jun-13 02:00N 56°12' W 164°36'6 6.0 060 / 91015.3 8.8 8.8
2018-Jun-13 01:00N 56°18' W 164°36'6 6.0 070 / 61015.2 9.0 9.0
2018-Jun-13 00:00N 56°12' W 164°36'6 6.0 060 / 51015.1 8.4 8.4
2018-Jun-12 23:00N 56°18' W 164°36'1212.0 050 / 111015.1 8.2 8.2
2018-Jun-12 22:00N 56°30' W 164°36'1212.0 030 / 101015.0 8.0 8.0
2018-Jun-12 21:00N 56°42' W 164°36'1818.0 020 / 101014.7 7.7 7.7
2018-Jun-12 20:00N 57°00' W 164°36'1212.0 020 / 81014.4 7.6 7.6
2018-Jun-12 19:00N 57°12' W 164°36'1313.0 020 / 81014.0 7.2 7.2
2018-Jun-12 18:00N 57°12' W 164°12'37 7.3 010 / 81013.6 7.0 7.0
2018-Jun-12 13:00N 56°36' W 164°00'0 0.0 330 / 121012.5 7.8 7.8
2018-Jun-12 12:00N 56°36' W 164°00'0 0.0 310 / 151012.8 7.7 7.7
2018-Jun-12 11:00N 56°36' W 164°00'0 0.0 310 / 121013.0 7.8 7.8
2018-Jun-12 10:00N 56°36' W 164°00'6 3.0 310 / 131012.9 7.7 7.7
2018-Jun-12 08:00N 56°30' W 164°00'3 3.3 310 / 131012.9 7.9 7.9
2018-Jun-12 07:00N 56°30' W 163°54'36 7.2 300 / 111012.8 7.8 7.8
2018-Jun-12 02:00N 55°54' W 164°00'36 9.0 350 / 91013.2 6.6 6.6
2018-Jun-11 22:00N 55°18' W 164°00'0 0.0 330 / 31013.8 6.1 6.1
2018-Jun-11 21:00N 55°18' W 164°00'0 0.0 310 / 51013.6 6.4 6.4
2018-Jun-11 20:00N 55°18' W 164°00'14 6.9 320 / 51013.8 5.5 5.5
2018-Jun-11 18:00N 55°06' W 163°48'1515.0 210 / 31013.7 5.3 5.3
2018-Jun-11 17:00N 55°12' W 163°24'1212.0 340 / 61013.6 5.0 5.0
2018-Jun-11 16:00N 55°24' W 163°24'1212.0 010 / 71013.4 5.2 5.2
2018-Jun-11 15:00N 55°36' W 163°24'1212.0 350 / 81013.2 5.0 5.0
2018-Jun-11 14:00N 55°48' W 163°24'0 0.0 330 / 101013.1 5.4 5.4
2018-Jun-11 13:00N 55°48' W 163°24'0 0.0 360 / 101013.2 5.4 5.4
2018-Jun-11 12:00N 55°48' W 163°24'0 0.0 360 / 81013.6 5.2 5.2
2018-Jun-11 10:00N 55°48' W 163°24'0 0.0 020 / 121013.6 5.5 5.5
2018-Jun-11 09:00N 55°48' W 163°24'0 0.0 020 / 91013.8 5.7 5.7
2018-Jun-11 08:00N 55°48' W 163°24'0 0.0 360 / 131013.8 5.9 5.9
2018-Jun-11 07:00N 55°48' W 163°24'0 0.0 010 / 131013.7 5.4 5.4
2018-Jun-11 06:00N 55°48' W 163°24'1212.0 1013.9 5.8 5.8
2018-Jun-11 05:00N 56°00' W 163°24'1212.0 010 / 141014.1 6.6 6.6
2018-Jun-11 04:00N 56°12' W 163°24'1818.0 010 / 161014.3 6.7 6.7
2018-Jun-11 03:00N 56°30' W 163°24'1212.0 360 / 141014.5 7.0 7.0
2018-Jun-11 02:00N 56°42' W 163°24'1212.0 1014.7 7.2 7.2
2018-Jun-11 01:00N 56°54' W 163°24'1212.0 010 / 151015.2 7.6 7.6
2018-Jun-11 00:00N 57°06' W 163°24'1111.5 010 / 161015.4 7.0 7.0
2018-Jun-10 23:00N 57°12' W 163°06'26 8.6 1015.2 5.9 5.9
2018-Jun-10 20:00N 56°48' W 162°48'0 0.0 310 / 81015.5 3.9 3.9
2018-Jun-10 19:00N 56°48' W 162°48'36 7.2 320 / 71015.6 3.4 3.4
2018-Jun-10 14:00N 56°12' W 162°48'   030 / 71015.3 4.5 4.5

Dump ship's entire track history